• Join FlightAware (Why Join?)
  • Login
  • US Flag 
02:09AM EDT


 

Airport Tracker/Info


-or-


 

Live Flight TrackerFlight Track Log ✈ ASQ6127 ✈ 06-May-2013 ✈ KTYS - KIAD

Flight Track Log - Related Links

Times and Time Zones

All times are in EDT time to prevent confusion due to time zone crossing. See the ASQ6127 flight status page for this flight to view local times or setup timezone preferences in your user account.

Time Position Orientation Groundspeed Altitude Reporting Facility
EDT Latitude Longitude Course Direction KTS MPH feet Rate Location/Type
06:18AM 35.7850 -84.0592 27° Northeast 204 235 3,000  Level Atlanta Center
06:19AM 35.8331 -84.0567 North 225 259 4,900 1,920 Climbing Atlanta Center
06:20AM 36.0605 -83.7854 30° Northeast  Level FlightAware Approximate
06:20AM 35.8811 -83.9953 46° Northeast 196 226 6,900  Level Atlanta Center
06:21AM 36.1503 -83.7221 28° Northeast  Level FlightAware Approximate
06:21AM 35.9456 -83.9336 38° Northeast 238 274 9,300  Level Atlanta Center
06:22AM 36.2413 -83.6614 28° Northeast  Level FlightAware Approximate
06:22AM 36.0081 -83.8744 37° Northeast 271 312 11,000  Level Atlanta Center
06:23AM 36.3328 -83.6016 27° Northeast  Level FlightAware Approximate
06:23AM 36.0811 -83.7997 40° Northeast 304 350 12,100  Level Atlanta Center
06:24AM 36.1456 -83.7147 47° Northeast 328 377 13,300 1,800 Climbing Atlanta Center
06:25AM 36.2036 -83.6244 51° Northeast 333 383 15,800 2,280 Climbing Atlanta Center
06:26AM 36.2617 -83.5367 51° Northeast 333 383 17,900 1,800 Climbing Atlanta Center
06:27AM 36.3197 -83.4486 51° Northeast 327 376 19,500 1,320 Climbing Atlanta Center
06:28AM 36.3775 -83.3581 52° Northeast 332 382 20,600 720 Climbing Atlanta Center
06:29AM 36.4417 -83.2567 52° Northeast 354 407 21,000 540 Climbing Atlanta Center
06:30AM 36.5117 -83.1503 51° Northeast 374 430 21,700 960 Climbing Atlanta Center
06:32AM 36.6403 -82.9517 51° Northeast 397 457 23,900 1,080 Climbing Indianapolis Center
06:33AM 36.7075 -82.8456 52° Northeast 395 455 25,000 1,140 Climbing Indianapolis Center
06:34AM 36.7850 -82.7239 51° Northeast 389 448 26,300 1,200 Climbing Indianapolis Center
06:35AM 36.8506 -82.6208 51° Northeast 384 442 27,500 1,140 Climbing Indianapolis Center
06:36AM 36.9158 -82.5186 51° Northeast 379 436 28,600 1,140 Climbing Indianapolis Center
06:37AM 36.9811 -82.4158 51° Northeast 378 435 29,800 1,080 Climbing Indianapolis Center
06:38AM 37.0458 -82.3139 51° Northeast 375 432 30,800 540 Climbing Indianapolis Center
06:39AM 37.1131 -82.2061 52° Northeast 389 448 31,000 60 Climbing Indianapolis Center
06:40AM 37.1850 -82.0917 52° Northeast 412 474 31,000  Level Indianapolis Center
06:41AM 37.2583 -81.9753 52° Northeast 423 487 31,000  Level Indianapolis Center
06:42AM 37.3319 -81.8561 52° Northeast 428 493 31,000  Level Indianapolis Center
06:43AM 37.4067 -81.7356 52° Northeast 435 501 31,000  Level Indianapolis Center
06:44AM 37.4825 -81.6133 52° Northeast 440 506 31,000  Level Indianapolis Center
06:45AM 37.5561 -81.4953 52° Northeast 442 509 31,000  Level Indianapolis Center
06:46AM 37.6289 -81.3756 52° Northeast 442 509 31,000  Level Indianapolis Center
06:47AM 37.6992 -81.2586 53° Northeast 456 525 31,000  Level Washington Center
06:48AM 37.7719 -81.1353 53° Northeast 443 510 31,000  Level Washington Center
06:49AM 37.8236 -81.0050 63° Northeast 424 488 31,000  Level Washington Center
06:50AM 37.8847 -80.8542 63° Northeast 419 482 31,000  Level Washington Center
06:51AM 37.9447 -80.7214 60° Northeast 424 488 31,000  Level Washington Center
06:52AM 38.0047 -80.5858 61° Northeast 424 488 31,000  Level Washington Center
06:53AM 38.0522 -80.4439 67° East 430 495 31,000  Level Washington Center
06:54AM 38.0972 -80.3069 67° East 443 510 31,000  Level Washington Center
06:55AM 38.1508 -80.1600 65° Northeast 448 516 31,000 -180 Level Washington Center
06:56AM 38.2025 -80.0097 66° East 453 521 30,700 -1,020 Descending Washington Center
06:57AM 38.2517 -79.8594 67° East 453 521 29,000 -1,800 Descending Washington Center
06:58AM 38.3031 -79.7061 67° East 458 527 27,200 -1,800 Descending Washington Center
06:59AM 38.3564 -79.5422 67° East 458 527 25,400 -1,620 Descending Washington Center
07:00AM 38.4047 -79.4017 66° East 453 521 24,000 -900 Descending Washington Center
07:01AM 38.4464 -79.2714 68° East 423 487 23,700 -960 Descending Washington Center
07:02AM 38.4900 -79.1381 67° East 405 466 22,100 -1,860 Descending Washington Center
07:03AM 38.5311 -79.0128 67° East 398 458 20,100 -1,920 Descending Washington Center
07:04AM 38.5636 -78.9000 70° East 385 443 18,300 -1,800 Descending Washington Center
07:05AM 38.6042 -78.7822 66° East 367 422 16,500 -1,920 Descending Washington Center
07:06AM 38.6406 -78.6669 68° East 356 410 14,500 -1,920 Descending Washington Center
07:07AM 38.6744 -78.5619 68° East 341 392 12,800 -1,740 Descending Washington Center
07:08AM 38.7042 -78.4622 69° East 320 368 11,100 -1,080 Descending Washington Center
07:09AM 38.7375 -78.3703 65° Northeast 297 342 10,700 -960 Descending Washington Center
07:10AM 38.7811 -78.2839 57° Northeast 282 325 9,300 -1,260 Descending Washington Center
07:11AM 38.8225 -78.2028 57° Northeast 271 312 8,300 -1,080 Descending Washington Center
07:12AM 38.8617 -78.1217 58° Northeast 265 305 7,200 -1,020 Descending Washington Center
07:13AM 38.8969 -78.0375 62° Northeast 265 305 6,300 -600 Descending Washington Center
07:14AM 38.9172 -77.9528 73° East 260 299 6,000 -180 Descending Washington Center
07:15AM 38.9442 -77.8522 71° East 255 293 6,000  Level Washington Center
07:16AM 38.9625 -77.7700 74° East 255 293 6,000  Level Washington Center
07:17AM 38.9333 -77.6167 104° East 248 285 6,000  Level Potomac TRACON
07:18AM 38.8667 -77.5833 159° South 247 284 6,000 -120 Level Potomac TRACON
07:19AM 38.8000 -77.5667 169° South 191 220 5,800 -600 Descending Potomac TRACON
07:20AM 38.7500 -77.5833 195° South 184 212 4,800 -960 Descending Potomac TRACON
07:21AM 38.7167 -77.5667 159° South 202 232 4,000 -660 Descending Potomac TRACON
07:22AM 38.7167 -77.5000 90° East 193 222 3,600 -300 Descending Potomac TRACON
07:23AM 38.7667 -77.4667 27° Northeast 207 238 3,500 -480 Descending Potomac TRACON
07:24AM 38.8167 -77.4667 360° North 214 246 2,700 -900 Descending Potomac TRACON
07:25AM 38.8667 -77.4667 360° North 165 190 1,700 -900 Descending Potomac TRACON
07:26AM 38.9000 -77.4667 360° North 130 150 1,000 -720 Descending Potomac TRACON